• Join FlightAware (Why Join?)
  • Login
  • US Flag 
03:29AM EST


 

Airport Tracker/Info


-or-


 

Live Flight TrackerFlight Track Log ✈ SWA3685 ✈ 06-May-2013 ✈ KPHX - KABQ

Flight Track Log - Related Links

Times and Time Zones

All times are in EDT time to prevent confusion due to time zone crossing. See the SWA3685 flight status page for this flight to view local times or setup timezone preferences in your user account.

Time Position Orientation Groundspeed Altitude Reporting Facility
EDT Latitude Longitude Course Direction KTS MPH feet Rate Location/Type
09:28AM 33.4333 -111.9833 90° East 164 189 2,100  Level Phoenix TRACON
09:29AM 33.4333 -111.9500 90° East 192 221 3,300 1,980 Climbing Phoenix TRACON
09:30AM 33.4333 -111.8667 90° East 236 272 5,500 2,820 Climbing Phoenix TRACON
09:31AM 33.4886 -111.7761 54° Northeast 282 325 9,700 3,060 Climbing Albuquerque Center
09:32AM 33.5342 -111.6817 60° Northeast 332 382 12,500 3,000 Climbing Albuquerque Center
09:34AM 33.6192 -111.4547 66° East 383 441 18,900 2,940 Climbing Albuquerque Center
09:35AM 33.6658 -111.3294 66° East 408 470 21,500 2,400 Climbing Albuquerque Center
09:37AM 33.7233 -111.1530 67° East  Level FlightAware Approximate
09:37AM 33.7608 -111.0628 67° East 443 510 26,400  Level Albuquerque Center
09:38AM 33.8114 -110.9206 67° East 460 529 28,100 1,620 Climbing Albuquerque Center
09:39AM 33.8636 -110.7728 67° East 476 548 29,800 1,860 Climbing Albuquerque Center
09:40AM 33.9178 -110.6203 67° East 490 564 31,900 2,340 Climbing Albuquerque Center
09:41AM 33.9806 -110.4397 67° East 490 564 34,600 1,500 Climbing Albuquerque Center
09:42AM 34.0297 -110.3000 67° East 480 552 35,000 120 Climbing Albuquerque Center
09:44AM 34.1325 -110.0036 67° East 470 541 35,000  Level Albuquerque Center
09:46AM 34.1837 -109.8424 69° East  Level FlightAware Approximate
09:48AM 34.3406 -109.3928 85° East 478 550 35,000  Level Albuquerque Center
09:49AM 34.3889 -109.2500 68° East 479 551 35,000  Level Albuquerque Center
09:50AM 34.4308 -109.1056 71° East 476 548 35,000  Level Albuquerque Center
09:51AM 34.4522 -108.9278 82° East 476 548 35,000  Level Albuquerque Center
09:52AM 34.4714 -108.7761 81° East 477 549 35,000 -60 Level Albuquerque Center
09:53AM 34.4284 -109.0629 79° East  Level FlightAware Approximate
09:53AM 34.4903 -108.6244 81° East 477 549 34,900  Level Albuquerque Center
09:54AM 34.4402 -108.9444 85° East  Level FlightAware Approximate
09:54AM 34.5097 -108.4700 81° East 476 548 32,600  Level Albuquerque Center
09:55AM 34.5381 -108.3164 77° East 471 542 30,100 -2,340 Descending Albuquerque Center
09:57AM 34.5512 -108.1659 78° East  Level FlightAware Approximate
09:57AM 34.5922 -107.9958 78° East 437 503 25,500  Level Albuquerque Center
09:58AM 34.6142 -107.8611 79° East 417 480 23,600 -1,920 Descending Albuquerque Center
09:59AM 34.6514 -107.7392 70° East 396 456 21,700 -1,980 Descending Albuquerque Center
10:00AM 34.6817 -107.6681 63° Northeast 386 444 20,500 -1,920 Descending Albuquerque Center
10:00AM 34.7028 -107.6231 60° Northeast 390 449 19,800 -1,920 Descending Albuquerque Center
10:01AM 34.7344 -107.5497 62° Northeast 389 448 18,600 -1,740 Descending Albuquerque Center
10:02AM 34.7992 -107.3967 63° Northeast 377 434 16,300 -1,320 Descending Albuquerque Center
10:03AM 34.8267 -107.3256 65° Northeast 359 413 16,000 -420 Descending Albuquerque Center
10:03AM 34.8428 -107.2933 59° Northeast 356 410 15,900 -300 Descending Albuquerque Center
10:04AM 34.8683 -107.2325 63° Northeast 299 344 15,700 -660 Descending Albuquerque Center
10:05AM 34.8961 -107.1453 69° East 273 314 14,900 -900 Descending Albuquerque Center
10:05AM 34.8953 -107.1153 92° East 272 313 14,400 -1,560 Descending Albuquerque Center
10:06AM 34.9042 -107.0425 82° East 261 300 13,200 -1,800 Descending Albuquerque Center
10:06AM 34.9081 -107.0078 82° East 272 313 12,600 -1,620 Descending Albuquerque Center
10:08AM 34.8763 -106.8863 98° East  Level FlightAware Approximate
10:10AM 34.9436 -106.7481 90° East 261 300 7,600  Level Albuquerque Center
10:12AM 35.0053 -106.6481 53° Northeast 193 222 5,800 -780 Descending Albuquerque Center
10:13AM 35.0408 -106.6067 44° Northeast 178 205 5,300 -540 Descending Albuquerque Center
10:15AM 35.0333 -106.6000 90° East  Level FlightAware Approximate